Solon, Iowa
Current Conditions -  °F | °C
As of 6:52 PM on Monday 24 Nov 2014 (Local Time) from KCID Reporting Station
Overcast Overcast  
Wind Chill: 11°   Ceiling: 2300
Heat Index: 25°   Visibility: 10mi
Dew Point: 21°   Wind: 18mph
Humidity: 85%   Direction: 290°WNW
Pressure: 29.78"   Gusts: 29mph
Location:  41.81°N, 91.49°W
Report Text: KCID 250052Z 29016G25KT 10SM OVC023 M04/M06 A2978 RMK AO2 UPB2358E2359SNE2355B2359E18 SLP093 P0000 T10391061
Loading
Personal Weather Stations






























Interactive Weather Map New forecast layout! Learn more

10-Day Weather Forecast

Advertisements
Track Severe Weather on mobile